sensor_id;sensor_type;location;lat;lon;timestamp;P1;durP1;ratioP1;P2;durP2;ratioP2
10701;SDS011;5402;50.004;8.246;2023-03-14T00:02:15;1.23;;;1.10;;
10701;SDS011;5402;50.004;8.246;2023-03-14T00:04:42;2.77;;;1.10;;
10701;SDS011;5402;50.004;8.246;2023-03-14T00:07:10;1.53;;;1.37;;
10701;SDS011;5402;50.004;8.246;2023-03-14T00:09:37;2.77;;;1.23;;
10701;SDS011;5402;50.004;8.246;2023-03-14T00:12:04;3.30;;;1.00;;
10701;SDS011;5402;50.004;8.246;2023-03-14T00:14:33;2.57;;;1.30;;
10701;SDS011;5402;50.004;8.246;2023-03-14T00:17:00;2.30;;;1.27;;
10701;SDS011;5402;50.004;8.246;2023-03-14T00:19:27;4.07;;;1.30;;
10701;SDS011;5402;50.004;8.246;2023-03-14T00:21:53;3.03;;;1.27;;
10701;SDS011;5402;50.004;8.246;2023-03-14T00:24:20;2.83;;;1.20;;
10701;SDS011;5402;50.004;8.246;2023-03-14T00:26:47;4.17;;;1.50;;
10701;SDS011;5402;50.004;8.246;2023-03-14T00:29:13;3.33;;;1.30;;
10701;SDS011;5402;50.004;8.246;2023-03-14T00:31:41;2.37;;;1.07;;
10701;SDS011;5402;50.004;8.246;2023-03-14T00:34:08;2.43;;;1.30;;
10701;SDS011;5402;50.004;8.246;2023-03-14T00:36:35;2.37;;;1.20;;
10701;SDS011;5402;50.004;8.246;2023-03-14T00:39:01;3.37;;;1.70;;
10701;SDS011;5402;50.004;8.246;2023-03-14T00:41:28;1.90;;;1.10;;
10701;SDS011;5402;50.004;8.246;2023-03-14T00:43:55;3.80;;;1.20;;
10701;SDS011;5402;50.004;8.246;2023-03-14T00:46:22;2.23;;;1.23;;
10701;SDS011;5402;50.004;8.246;2023-03-14T00:48:50;2.77;;;1.17;;
10701;SDS011;5402;50.004;8.246;2023-03-14T00:51:16;2.17;;;1.20;;
10701;SDS011;5402;50.004;8.246;2023-03-14T00:53:43;3.30;;;1.23;;
10701;SDS011;5402;50.004;8.246;2023-03-14T00:56:11;4.77;;;1.50;;
10701;SDS011;5402;50.004;8.246;2023-03-14T00:58:38;4.07;;;1.20;;
10701;SDS011;5402;50.004;8.246;2023-03-14T01:01:07;4.67;;;1.67;;
10701;SDS011;5402;50.004;8.246;2023-03-14T01:03:35;2.70;;;1.20;;
10701;SDS011;5402;50.004;8.246;2023-03-14T01:06:13;4.07;;;1.50;;
10701;SDS011;5402;50.004;8.246;2023-03-14T01:08:41;3.23;;;1.60;;
10701;SDS011;5402;50.004;8.246;2023-03-14T01:11:08;7.60;;;1.50;;
10701;SDS011;5402;50.004;8.246;2023-03-14T01:13:37;3.47;;;1.23;;
10701;SDS011;5402;50.004;8.246;2023-03-14T01:16:04;3.17;;;1.20;;
10701;SDS011;5402;50.004;8.246;2023-03-14T01:18:33;5.43;;;1.40;;
10701;SDS011;5402;50.004;8.246;2023-03-14T01:21:01;4.70;;;1.20;;
10701;SDS011;5402;50.004;8.246;2023-03-14T01:23:30;3.23;;;1.10;;
10701;SDS011;5402;50.004;8.246;2023-03-14T01:25:56;3.50;;;1.30;;
10701;SDS011;5402;50.004;8.246;2023-03-14T01:28:23;4.20;;;1.27;;
10701;SDS011;5402;50.004;8.246;2023-03-14T01:30:49;3.33;;;1.20;;
10701;SDS011;5402;50.004;8.246;2023-03-14T01:33:16;4.07;;;1.53;;
10701;SDS011;5402;50.004;8.246;2023-03-14T01:35:43;6.23;;;1.50;;
10701;SDS011;5402;50.004;8.246;2023-03-14T01:38:09;3.70;;;1.63;;
10701;SDS011;5402;50.004;8.246;2023-03-14T01:40:42;3.57;;;1.17;;
10701;SDS011;5402;50.004;8.246;2023-03-14T01:43:13;5.17;;;1.60;;
10701;SDS011;5402;50.004;8.246;2023-03-14T01:48:46;2.60;;;1.20;;
10701;SDS011;5402;50.004;8.246;2023-03-14T01:51:18;5.50;;;1.40;;
10701;SDS011;5402;50.004;8.246;2023-03-14T01:53:47;4.63;;;1.40;;
10701;SDS011;5402;50.004;8.246;2023-03-14T01:56:17;4.33;;;1.33;;
10701;SDS011;5402;50.004;8.246;2023-03-14T01:58:45;1.97;;;1.20;;
10701;SDS011;5402;50.004;8.246;2023-03-14T02:01:14;4.33;;;1.27;;
10701;SDS011;5402;50.004;8.246;2023-03-14T02:03:44;2.93;;;1.30;;
10701;SDS011;5402;50.004;8.246;2023-03-14T02:06:14;5.60;;;1.30;;
10701;SDS011;5402;50.004;8.246;2023-03-14T02:08:43;4.07;;;1.53;;
10701;SDS011;5402;50.004;8.246;2023-03-14T02:11:13;7.13;;;1.50;;
10701;SDS011;5402;50.004;8.246;2023-03-14T02:13:41;4.13;;;1.60;;
10701;SDS011;5402;50.004;8.246;2023-03-14T02:16:08;4.93;;;1.40;;
10701;SDS011;5402;50.004;8.246;2023-03-14T02:18:35;2.07;;;1.30;;
10701;SDS011;5402;50.004;8.246;2023-03-14T02:21:04;3.30;;;1.30;;
10701;SDS011;5402;50.004;8.246;2023-03-14T02:23:38;1.73;;;1.13;;
10701;SDS011;5402;50.004;8.246;2023-03-14T02:26:14;6.20;;;1.47;;
10701;SDS011;5402;50.004;8.246;2023-03-14T02:28:46;3.03;;;1.37;;
10701;SDS011;5402;50.004;8.246;2023-03-14T02:31:18;5.80;;;1.40;;
10701;SDS011;5402;50.004;8.246;2023-03-14T02:33:48;3.60;;;1.07;;
10701;SDS011;5402;50.004;8.246;2023-03-14T02:36:16;2.07;;;1.40;;
10701;SDS011;5402;50.004;8.246;2023-03-14T02:38:46;1.77;;;1.00;;
10701;SDS011;5402;50.004;8.246;2023-03-14T02:41:18;1.47;;;1.37;;
10701;SDS011;5402;50.004;8.246;2023-03-14T02:43:44;3.17;;;1.40;;
10701;SDS011;5402;50.004;8.246;2023-03-14T02:46:13;6.97;;;1.60;;
10701;SDS011;5402;50.004;8.246;2023-03-14T02:48:43;5.27;;;1.53;;
10701;SDS011;5402;50.004;8.246;2023-03-14T02:51:15;6.77;;;1.87;;
10701;SDS011;5402;50.004;8.246;2023-03-14T02:53:42;3.00;;;1.27;;
10701;SDS011;5402;50.004;8.246;2023-03-14T02:56:09;3.80;;;1.50;;
10701;SDS011;5402;50.004;8.246;2023-03-14T02:58:36;6.10;;;1.50;;
10701;SDS011;5402;50.004;8.246;2023-03-14T03:01:05;1.83;;;1.43;;
10701;SDS011;5402;50.004;8.246;2023-03-14T03:03:32;3.07;;;1.37;;
10701;SDS011;5402;50.004;8.246;2023-03-14T03:05:59;4.57;;;1.57;;
10701;SDS011;5402;50.004;8.246;2023-03-14T03:08:26;6.10;;;1.30;;
10701;SDS011;5402;50.004;8.246;2023-03-14T03:10:58;3.74;;;1.46;;
10701;SDS011;5402;50.004;8.246;2023-03-14T03:13:24;5.47;;;1.70;;
10701;SDS011;5402;50.004;8.246;2023-03-14T03:15:51;3.07;;;1.30;;
10701;SDS011;5402;50.004;8.246;2023-03-14T03:18:20;1.93;;;1.00;;
10701;SDS011;5402;50.004;8.246;2023-03-14T03:20:46;2.20;;;1.10;;
10701;SDS011;5402;50.004;8.246;2023-03-14T03:23:13;3.40;;;1.20;;
10701;SDS011;5402;50.004;8.246;2023-03-14T03:25:40;4.00;;;1.60;;
10701;SDS011;5402;50.004;8.246;2023-03-14T03:28:07;1.60;;;1.30;;
10701;SDS011;5402;50.004;8.246;2023-03-14T03:30:36;3.70;;;1.83;;
10701;SDS011;5402;50.004;8.246;2023-03-14T03:33:03;5.33;;;1.43;;
10701;SDS011;5402;50.004;8.246;2023-03-14T03:35:31;5.03;;;1.47;;
10701;SDS011;5402;50.004;8.246;2023-03-14T03:37:58;4.93;;;1.93;;
10701;SDS011;5402;50.004;8.246;2023-03-14T03:40:25;1.50;;;1.10;;
10701;SDS011;5402;50.004;8.246;2023-03-14T03:42:52;2.27;;;1.23;;
10701;SDS011;5402;50.004;8.246;2023-03-14T03:45:18;3.30;;;1.50;;
10701;SDS011;5402;50.004;8.246;2023-03-14T03:47:45;2.03;;;1.10;;
10701;SDS011;5402;50.004;8.246;2023-03-14T03:50:12;5.83;;;1.33;;
10701;SDS011;5402;50.004;8.246;2023-03-14T03:52:41;5.23;;;1.50;;
10701;SDS011;5402;50.004;8.246;2023-03-14T03:55:08;2.80;;;1.30;;
10701;SDS011;5402;50.004;8.246;2023-03-14T03:57:35;2.23;;;1.20;;
10701;SDS011;5402;50.004;8.246;2023-03-14T04:00:02;2.13;;;1.43;;
10701;SDS011;5402;50.004;8.246;2023-03-14T04:02:29;3.03;;;1.17;;
10701;SDS011;5402;50.004;8.246;2023-03-14T04:04:56;6.07;;;1.70;;
10701;SDS011;5402;50.004;8.246;2023-03-14T04:07:23;4.00;;;1.30;;
10701;SDS011;5402;50.004;8.246;2023-03-14T04:09:51;1.60;;;1.13;;
10701;SDS011;5402;50.004;8.246;2023-03-14T04:12:18;3.00;;;0.97;;
10701;SDS011;5402;50.004;8.246;2023-03-14T04:14:45;2.43;;;1.10;;
10701;SDS011;5402;50.004;8.246;2023-03-14T04:17:11;5.03;;;1.20;;
10701;SDS011;5402;50.004;8.246;2023-03-14T04:19:38;3.00;;;1.13;;
10701;SDS011;5402;50.004;8.246;2023-03-14T04:22:05;3.27;;;1.47;;
10701;SDS011;5402;50.004;8.246;2023-03-14T04:24:32;1.20;;;0.90;;
10701;SDS011;5402;50.004;8.246;2023-03-14T04:27:00;3.80;;;1.10;;
10701;SDS011;5402;50.004;8.246;2023-03-14T04:29:26;2.47;;;1.00;;
10701;SDS011;5402;50.004;8.246;2023-03-14T04:31:53;2.77;;;1.10;;
10701;SDS011;5402;50.004;8.246;2023-03-14T04:34:20;4.93;;;1.20;;
10701;SDS011;5402;50.004;8.246;2023-03-14T04:36:46;1.97;;;0.90;;
10701;SDS011;5402;50.004;8.246;2023-03-14T04:39:13;2.93;;;0.90;;
10701;SDS011;5402;50.004;8.246;2023-03-14T04:41:40;2.33;;;1.03;;
10701;SDS011;5402;50.004;8.246;2023-03-14T04:44:08;1.27;;;0.90;;
10701;SDS011;5402;50.004;8.246;2023-03-14T04:46:35;2.80;;;0.90;;
10701;SDS011;5402;50.004;8.246;2023-03-14T04:49:01;2.43;;;0.93;;
10701;SDS011;5402;50.004;8.246;2023-03-14T04:51:28;3.77;;;1.10;;
10701;SDS011;5402;50.004;8.246;2023-03-14T04:53:55;3.67;;;1.13;;
10701;SDS011;5402;50.004;8.246;2023-03-14T04:56:21;4.47;;;1.00;;
10701;SDS011;5402;50.004;8.246;2023-03-14T04:58:48;4.87;;;1.03;;
10701;SDS011;5402;50.004;8.246;2023-03-14T05:01:16;1.73;;;1.03;;
10701;SDS011;5402;50.004;8.246;2023-03-14T05:03:43;2.83;;;0.97;;
10701;SDS011;5402;50.004;8.246;2023-03-14T05:06:10;3.90;;;1.30;;
10701;SDS011;5402;50.004;8.246;2023-03-14T05:08:37;2.53;;;0.90;;
10701;SDS011;5402;50.004;8.246;2023-03-14T05:11:03;3.43;;;1.00;;
10701;SDS011;5402;50.004;8.246;2023-03-14T05:13:30;2.17;;;1.00;;
10701;SDS011;5402;50.004;8.246;2023-03-14T05:16:02;3.83;;;0.83;;
10701;SDS011;5402;50.004;8.246;2023-03-14T05:18:31;3.40;;;1.10;;
10701;SDS011;5402;50.004;8.246;2023-03-14T05:20:58;2.50;;;0.97;;
10701;SDS011;5402;50.004;8.246;2023-03-14T05:23:24;1.60;;;0.90;;
10701;SDS011;5402;50.004;8.246;2023-03-14T05:25:51;3.07;;;1.13;;
10701;SDS011;5402;50.004;8.246;2023-03-14T05:28:18;3.07;;;1.47;;
10701;SDS011;5402;50.004;8.246;2023-03-14T05:30:45;2.10;;;1.00;;
10701;SDS011;5402;50.004;8.246;2023-03-14T05:33:11;2.37;;;0.70;;
10701;SDS011;5402;50.004;8.246;2023-03-14T05:35:39;1.90;;;1.07;;
10701;SDS011;5402;50.004;8.246;2023-03-14T05:38:07;1.00;;;0.90;;
10701;SDS011;5402;50.004;8.246;2023-03-14T05:40:34;2.73;;;0.90;;
10701;SDS011;5402;50.004;8.246;2023-03-14T05:43:01;1.80;;;0.87;;
10701;SDS011;5402;50.004;8.246;2023-03-14T05:45:27;0.73;;;0.70;;
10701;SDS011;5402;50.004;8.246;2023-03-14T05:47:54;1.17;;;0.90;;
10701;SDS011;5402;50.004;8.246;2023-03-14T05:50:21;1.67;;;0.97;;
10701;SDS011;5402;50.004;8.246;2023-03-14T05:52:49;4.13;;;1.30;;
10701;SDS011;5402;50.004;8.246;2023-03-14T05:55:15;3.40;;;1.10;;
10701;SDS011;5402;50.004;8.246;2023-03-14T05:57:42;3.00;;;1.10;;
10701;SDS011;5402;50.004;8.246;2023-03-14T06:00:09;1.93;;;0.80;;
10701;SDS011;5402;50.004;8.246;2023-03-14T06:02:36;1.30;;;0.90;;
10701;SDS011;5402;50.004;8.246;2023-03-14T06:05:04;0.90;;;0.80;;
10701;SDS011;5402;50.004;8.246;2023-03-14T06:07:31;3.73;;;1.10;;
10701;SDS011;5402;50.004;8.246;2023-03-14T06:09:59;4.43;;;1.10;;
10701;SDS011;5402;50.004;8.246;2023-03-14T06:12:26;3.93;;;1.17;;
10701;SDS011;5402;50.004;8.246;2023-03-14T06:14:53;1.83;;;1.10;;
10701;SDS011;5402;50.004;8.246;2023-03-14T06:17:20;1.87;;;1.00;;
10701;SDS011;5402;50.004;8.246;2023-03-14T06:19:47;1.53;;;1.00;;
10701;SDS011;5402;50.004;8.246;2023-03-14T06:22:13;2.90;;;0.90;;
10701;SDS011;5402;50.004;8.246;2023-03-14T06:24:40;1.60;;;0.80;;
10701;SDS011;5402;50.004;8.246;2023-03-14T06:27:08;3.30;;;1.10;;
10701;SDS011;5402;50.004;8.246;2023-03-14T06:29:35;3.53;;;1.10;;
10701;SDS011;5402;50.004;8.246;2023-03-14T06:32:01;1.07;;;0.90;;
10701;SDS011;5402;50.004;8.246;2023-03-14T06:34:29;2.67;;;1.40;;
10701;SDS011;5402;50.004;8.246;2023-03-14T06:36:56;1.23;;;1.00;;
10701;SDS011;5402;50.004;8.246;2023-03-14T06:39:22;2.23;;;1.00;;
10701;SDS011;5402;50.004;8.246;2023-03-14T06:41:49;2.20;;;1.20;;
10701;SDS011;5402;50.004;8.246;2023-03-14T06:44:17;1.50;;;0.80;;
10701;SDS011;5402;50.004;8.246;2023-03-14T06:46:44;1.73;;;0.90;;
10701;SDS011;5402;50.004;8.246;2023-03-14T06:49:10;1.87;;;1.00;;
10701;SDS011;5402;50.004;8.246;2023-03-14T06:51:37;2.20;;;1.17;;
10701;SDS011;5402;50.004;8.246;2023-03-14T06:54:04;3.40;;;1.00;;
10701;SDS011;5402;50.004;8.246;2023-03-14T06:56:31;2.87;;;1.30;;
10701;SDS011;5402;50.004;8.246;2023-03-14T06:58:57;3.20;;;1.33;;
10701;SDS011;5402;50.004;8.246;2023-03-14T07:01:26;3.20;;;1.10;;
10701;SDS011;5402;50.004;8.246;2023-03-14T07:03:54;1.83;;;1.10;;
10701;SDS011;5402;50.004;8.246;2023-03-14T07:06:21;1.13;;;1.07;;
10701;SDS011;5402;50.004;8.246;2023-03-14T07:08:48;1.93;;;1.10;;
10701;SDS011;5402;50.004;8.246;2023-03-14T07:11:14;1.60;;;1.13;;
10701;SDS011;5402;50.004;8.246;2023-03-14T07:13:41;3.10;;;1.20;;
10701;SDS011;5402;50.004;8.246;2023-03-14T07:16:08;2.20;;;0.83;;
10701;SDS011;5402;50.004;8.246;2023-03-14T07:18:36;3.47;;;1.30;;
10701;SDS011;5402;50.004;8.246;2023-03-14T07:21:03;1.47;;;1.00;;
10701;SDS011;5402;50.004;8.246;2023-03-14T07:23:30;2.27;;;1.20;;
10701;SDS011;5402;50.004;8.246;2023-03-14T07:25:57;1.20;;;0.80;;
10701;SDS011;5402;50.004;8.246;2023-03-14T07:28:24;1.10;;;0.90;;
10701;SDS011;5402;50.004;8.246;2023-03-14T07:30:52;1.87;;;1.07;;
10701;SDS011;5402;50.004;8.246;2023-03-14T07:33:19;3.57;;;1.10;;
10701;SDS011;5402;50.004;8.246;2023-03-14T07:35:47;2.80;;;1.10;;
10701;SDS011;5402;50.004;8.246;2023-03-14T07:38:14;2.23;;;1.20;;
10701;SDS011;5402;50.004;8.246;2023-03-14T07:40:41;1.97;;;1.17;;
10701;SDS011;5402;50.004;8.246;2023-03-14T07:43:08;3.30;;;1.40;;
10701;SDS011;5402;50.004;8.246;2023-03-14T07:45:35;2.90;;;1.30;;
10701;SDS011;5402;50.004;8.246;2023-03-14T07:48:02;1.70;;;1.20;;
10701;SDS011;5402;50.004;8.246;2023-03-14T07:50:28;2.07;;;1.10;;
10701;SDS011;5402;50.004;8.246;2023-03-14T07:52:56;1.90;;;1.13;;
10701;SDS011;5402;50.004;8.246;2023-03-14T07:55:23;5.37;;;1.40;;
10701;SDS011;5402;50.004;8.246;2023-03-14T07:57:50;2.93;;;1.20;;
10701;SDS011;5402;50.004;8.246;2023-03-14T08:00:18;2.60;;;1.40;;
10701;SDS011;5402;50.004;8.246;2023-03-14T08:02:45;3.20;;;1.23;;
10701;SDS011;5402;50.004;8.246;2023-03-14T08:05:12;2.40;;;1.30;;
10701;SDS011;5402;50.004;8.246;2023-03-14T08:07:39;3.17;;;1.57;;
10701;SDS011;5402;50.004;8.246;2023-03-14T08:10:08;2.63;;;1.30;;
10701;SDS011;5402;50.004;8.246;2023-03-14T08:12:35;3.33;;;1.20;;
10701;SDS011;5402;50.004;8.246;2023-03-14T08:15:16;1.70;;;1.60;;
10701;SDS011;5402;50.004;8.246;2023-03-14T08:17:43;4.00;;;1.50;;
10701;SDS011;5402;50.004;8.246;2023-03-14T08:20:10;2.47;;;1.37;;
10701;SDS011;5402;50.004;8.246;2023-03-14T08:22:38;1.87;;;1.50;;
10701;SDS011;5402;50.004;8.246;2023-03-14T08:25:05;2.00;;;1.77;;
10701;SDS011;5402;50.004;8.246;2023-03-14T08:27:33;2.13;;;1.53;;
10701;SDS011;5402;50.004;8.246;2023-03-14T08:30:02;1.80;;;1.63;;
10701;SDS011;5402;50.004;8.246;2023-03-14T08:32:30;2.47;;;1.63;;
10701;SDS011;5402;50.004;8.246;2023-03-14T08:34:56;1.57;;;1.37;;
10701;SDS011;5402;50.004;8.246;2023-03-14T08:37:23;1.97;;;1.40;;
10701;SDS011;5402;50.004;8.246;2023-03-14T08:39:50;1.40;;;1.30;;
10701;SDS011;5402;50.004;8.246;2023-03-14T08:42:17;1.70;;;1.47;;
10701;SDS011;5402;50.004;8.246;2023-03-14T08:44:45;2.00;;;1.40;;
10701;SDS011;5402;50.004;8.246;2023-03-14T08:47:12;2.00;;;1.67;;
10701;SDS011;5402;50.004;8.246;2023-03-14T08:49:39;1.50;;;1.40;;
10701;SDS011;5402;50.004;8.246;2023-03-14T08:52:06;3.67;;;1.60;;
10701;SDS011;5402;50.004;8.246;2023-03-14T08:54:33;2.33;;;1.37;;
10701;SDS011;5402;50.004;8.246;2023-03-14T08:56:59;1.47;;;1.37;;
10701;SDS011;5402;50.004;8.246;2023-03-14T08:59:26;2.07;;;1.20;;
10701;SDS011;5402;50.004;8.246;2023-03-14T09:01:54;1.60;;;1.50;;
10701;SDS011;5402;50.004;8.246;2023-03-14T09:04:21;4.63;;;1.50;;
10701;SDS011;5402;50.004;8.246;2023-03-14T09:06:48;1.63;;;1.50;;
10701;SDS011;5402;50.004;8.246;2023-03-14T09:09:14;2.23;;;1.43;;
10701;SDS011;5402;50.004;8.246;2023-03-14T09:11:42;2.30;;;1.30;;
10701;SDS011;5402;50.004;8.246;2023-03-14T09:14:08;1.30;;;1.20;;
10701;SDS011;5402;50.004;8.246;2023-03-14T09:16:35;1.83;;;1.23;;
10701;SDS011;5402;50.004;8.246;2023-03-14T09:19:03;1.47;;;1.30;;
10701;SDS011;5402;50.004;8.246;2023-03-14T09:21:30;1.37;;;1.20;;
10701;SDS011;5402;50.004;8.246;2023-03-14T09:23:57;1.50;;;1.23;;
10701;SDS011;5402;50.004;8.246;2023-03-14T09:26:24;3.00;;;1.10;;
10701;SDS011;5402;50.004;8.246;2023-03-14T09:28:51;2.83;;;1.50;;
10701;SDS011;5402;50.004;8.246;2023-03-14T09:31:17;2.40;;;1.30;;
10701;SDS011;5402;50.004;8.246;2023-03-14T09:33:44;2.93;;;1.50;;
10701;SDS011;5402;50.004;8.246;2023-03-14T09:36:12;2.73;;;1.40;;
10701;SDS011;5402;50.004;8.246;2023-03-14T09:38:39;2.40;;;1.50;;
10701;SDS011;5402;50.004;8.246;2023-03-14T09:41:12;1.50;;;1.40;;
10701;SDS011;5402;50.004;8.246;2023-03-14T09:43:41;1.40;;;1.20;;
10701;SDS011;5402;50.004;8.246;2023-03-14T09:46:09;2.83;;;1.60;;
10701;SDS011;5402;50.004;8.246;2023-03-14T09:48:37;1.30;;;1.20;;
10701;SDS011;5402;50.004;8.246;2023-03-14T09:51:05;2.00;;;1.37;;
10701;SDS011;5402;50.004;8.246;2023-03-14T09:53:39;1.40;;;1.30;;
10701;SDS011;5402;50.004;8.246;2023-03-14T09:56:09;4.03;;;1.60;;
10701;SDS011;5402;50.004;8.246;2023-03-14T09:58:41;1.53;;;1.30;;
10701;SDS011;5402;50.004;8.246;2023-03-14T10:01:11;2.53;;;1.50;;
10701;SDS011;5402;50.004;8.246;2023-03-14T10:03:42;2.10;;;1.20;;
10701;SDS011;5402;50.004;8.246;2023-03-14T10:06:11;1.73;;;1.23;;
10701;SDS011;5402;50.004;8.246;2023-03-14T10:08:41;1.30;;;1.20;;
10701;SDS011;5402;50.004;8.246;2023-03-14T10:11:11;1.40;;;1.30;;
10701;SDS011;5402;50.004;8.246;2023-03-14T10:13:46;1.90;;;1.03;;
10701;SDS011;5402;50.004;8.246;2023-03-14T10:16:15;1.60;;;1.10;;
10701;SDS011;5402;50.004;8.246;2023-03-14T10:18:44;1.10;;;1.07;;
10701;SDS011;5402;50.004;8.246;2023-03-14T10:21:17;1.10;;;1.10;;
10701;SDS011;5402;50.004;8.246;2023-03-14T10:23:48;1.30;;;1.20;;
10701;SDS011;5402;50.004;8.246;2023-03-14T10:26:15;1.53;;;1.27;;
10701;SDS011;5402;50.004;8.246;2023-03-14T10:28:45;1.40;;;1.20;;
10701;SDS011;5402;50.004;8.246;2023-03-14T10:31:13;2.83;;;1.10;;
10701;SDS011;5402;50.004;8.246;2023-03-14T10:33:41;1.70;;;1.10;;
10701;SDS011;5402;50.004;8.246;2023-03-14T10:36:15;1.23;;;1.13;;
10701;SDS011;5402;50.004;8.246;2023-03-14T10:38:45;2.00;;;1.20;;
10701;SDS011;5402;50.004;8.246;2023-03-14T10:41:17;3.60;;;1.00;;
10701;SDS011;5402;50.004;8.246;2023-03-14T10:43:50;4.17;;;0.97;;
10701;SDS011;5402;50.004;8.246;2023-03-14T10:46:19;1.13;;;0.90;;
10701;SDS011;5402;50.004;8.246;2023-03-14T10:48:46;1.90;;;1.27;;
10701;SDS011;5402;50.004;8.246;2023-03-14T10:51:18;1.43;;;1.00;;
10701;SDS011;5402;50.004;8.246;2023-03-14T10:53:55;0.80;;;0.80;;
10701;SDS011;5402;50.004;8.246;2023-03-14T10:56:28;0.97;;;0.97;;
10701;SDS011;5402;50.004;8.246;2023-03-14T10:59:00;1.10;;;1.00;;
10701;SDS011;5402;50.004;8.246;2023-03-14T11:01:31;2.20;;;1.30;;
10701;SDS011;5402;50.004;8.246;2023-03-14T11:04:10;3.07;;;1.10;;
10701;SDS011;5402;50.004;8.246;2023-03-14T11:06:48;0.90;;;0.90;;
10701;SDS011;5402;50.004;8.246;2023-03-14T11:09:21;1.00;;;0.90;;
10701;SDS011;5402;50.004;8.246;2023-03-14T11:11:53;1.10;;;0.80;;
10701;SDS011;5402;50.004;8.246;2023-03-14T11:14:29;0.80;;;0.80;;
10701;SDS011;5402;50.004;8.246;2023-03-14T11:17:04;1.07;;;0.90;;
10701;SDS011;5402;50.004;8.246;2023-03-14T11:19:42;0.70;;;0.70;;
10701;SDS011;5402;50.004;8.246;2023-03-14T11:22:24;1.87;;;0.60;;
10701;SDS011;5402;50.004;8.246;2023-03-14T11:25:10;1.57;;;0.70;;
10701;SDS011;5402;50.004;8.246;2023-03-14T11:27:45;0.63;;;0.50;;
10701;SDS011;5402;50.004;8.246;2023-03-14T11:30:21;1.93;;;0.80;;
10701;SDS011;5402;50.004;8.246;2023-03-14T11:32:55;0.60;;;0.60;;
10701;SDS011;5402;50.004;8.246;2023-03-14T11:35:28;0.53;;;0.53;;
10701;SDS011;5402;50.004;8.246;2023-03-14T11:38:01;0.40;;;0.40;;
10701;SDS011;5402;50.004;8.246;2023-03-14T11:40:35;0.57;;;0.57;;
10701;SDS011;5402;50.004;8.246;2023-03-14T11:43:09;0.67;;;0.67;;
10701;SDS011;5402;50.004;8.246;2023-03-14T11:45:41;0.40;;;0.30;;
10701;SDS011;5402;50.004;8.246;2023-03-14T11:48:20;0.43;;;0.43;;
10701;SDS011;5402;50.004;8.246;2023-03-14T11:50:54;0.30;;;0.30;;
10701;SDS011;5402;50.004;8.246;2023-03-14T11:53:29;1.90;;;0.20;;
10701;SDS011;5402;50.004;8.246;2023-03-14T11:56:07;0.07;;;0.07;;
10701;SDS011;5402;50.004;8.246;2023-03-14T11:58:42;0.17;;;0.17;;
10701;SDS011;5402;50.004;8.246;2023-03-14T12:01:17;0.00;;;0.00;;
10701;SDS011;5402;50.004;8.246;2023-03-14T12:03:49;0.30;;;0.20;;
10701;SDS011;5402;50.004;8.246;2023-03-14T12:06:23;0.10;;;0.10;;
10701;SDS011;5402;50.004;8.246;2023-03-14T12:09:01;0.30;;;0.30;;
10701;SDS011;5402;50.004;8.246;2023-03-14T12:11:33;0.20;;;0.20;;
10701;SDS011;5402;50.004;8.246;2023-03-14T12:14:16;0.63;;;0.37;;
10701;SDS011;5402;50.004;8.246;2023-03-14T12:16:45;0.20;;;0.17;;
10701;SDS011;5402;50.004;8.246;2023-03-14T12:19:14;0.97;;;0.10;;
10701;SDS011;5402;50.004;8.246;2023-03-14T12:21:53;0.10;;;0.10;;
10701;SDS011;5402;50.004;8.246;2023-03-14T12:24:24;0.30;;;0.30;;
10701;SDS011;5402;50.004;8.246;2023-03-14T12:26:55;0.37;;;0.37;;
10701;SDS011;5402;50.004;8.246;2023-03-14T12:29:24;0.10;;;0.10;;
10701;SDS011;5402;50.004;8.246;2023-03-14T12:32:06;0.10;;;0.10;;
10701;SDS011;5402;50.004;8.246;2023-03-14T12:34:38;0.13;;;0.10;;
10701;SDS011;5402;50.004;8.246;2023-03-14T12:37:12;0.20;;;0.20;;
10701;SDS011;5402;50.004;8.246;2023-03-14T12:39:45;0.80;;;0.17;;
10701;SDS011;5402;50.004;8.246;2023-03-14T12:42:21;0.47;;;0.47;;
10701;SDS011;5402;50.004;8.246;2023-03-14T12:45:24;0.37;;;0.37;;
10701;SDS011;5402;50.004;8.246;2023-03-14T12:47:53;0.40;;;0.40;;
10701;SDS011;5402;50.004;8.246;2023-03-14T12:50:26;0.00;;;0.00;;
10701;SDS011;5402;50.004;8.246;2023-03-14T12:53:04;0.40;;;0.40;;
10701;SDS011;5402;50.004;8.246;2023-03-14T12:55:53;1.03;;;0.30;;
10701;SDS011;5402;50.004;8.246;2023-03-14T12:58:28;0.30;;;0.30;;
10701;SDS011;5402;50.004;8.246;2023-03-14T13:01:01;1.23;;;0.10;;
10701;SDS011;5402;50.004;8.246;2023-03-14T13:03:42;0.20;;;0.20;;
10701;SDS011;5402;50.004;8.246;2023-03-14T13:06:45;0.27;;;0.27;;
10701;SDS011;5402;50.004;8.246;2023-03-14T13:09:35;1.27;;;0.50;;
10701;SDS011;5402;50.004;8.246;2023-03-14T13:12:27;0.20;;;0.20;;
10701;SDS011;5402;50.004;8.246;2023-03-14T13:14:58;0.30;;;0.20;;
10701;SDS011;5402;50.004;8.246;2023-03-14T13:17:30;0.10;;;0.10;;
10701;SDS011;5402;50.004;8.246;2023-03-14T13:19:59;0.20;;;0.20;;
10701;SDS011;5402;50.004;8.246;2023-03-14T13:22:32;0.40;;;0.40;;
10701;SDS011;5402;50.004;8.246;2023-03-14T13:25:02;0.20;;;0.20;;
10701;SDS011;5402;50.004;8.246;2023-03-14T13:27:31;1.13;;;0.30;;
10701;SDS011;5402;50.004;8.246;2023-03-14T13:30:04;0.33;;;0.33;;
10701;SDS011;5402;50.004;8.246;2023-03-14T13:32:46;1.90;;;0.47;;
10701;SDS011;5402;50.004;8.246;2023-03-14T13:35:15;0.30;;;0.30;;
10701;SDS011;5402;50.004;8.246;2023-03-14T13:37:45;0.47;;;0.40;;
10701;SDS011;5402;50.004;8.246;2023-03-14T13:40:19;0.67;;;0.60;;
10701;SDS011;5402;50.004;8.246;2023-03-14T13:42:49;0.93;;;0.70;;
10701;SDS011;5402;50.004;8.246;2023-03-14T13:45:27;0.97;;;0.80;;
10701;SDS011;5402;50.004;8.246;2023-03-14T13:47:53;0.90;;;0.80;;
10701;SDS011;5402;50.004;8.246;2023-03-14T13:50:20;0.90;;;0.90;;
10701;SDS011;5402;50.004;8.246;2023-03-14T13:52:48;1.00;;;1.00;;
10701;SDS011;5402;50.004;8.246;2023-03-14T13:55:21;1.20;;;1.00;;
10701;SDS011;5402;50.004;8.246;2023-03-14T13:57:49;2.70;;;0.90;;
10701;SDS011;5402;50.004;8.246;2023-03-14T14:00:20;0.93;;;0.93;;
10701;SDS011;5402;50.004;8.246;2023-03-14T14:02:51;1.00;;;1.00;;
10701;SDS011;5402;50.004;8.246;2023-03-14T14:05:19;1.00;;;0.93;;
10701;SDS011;5402;50.004;8.246;2023-03-14T14:07:46;1.13;;;1.03;;
10701;SDS011;5402;50.004;8.246;2023-03-14T14:10:17;2.60;;;1.20;;
10701;SDS011;5402;50.004;8.246;2023-03-14T14:12:45;1.10;;;1.00;;
10701;SDS011;5402;50.004;8.246;2023-03-14T14:15:16;2.00;;;0.97;;
10701;SDS011;5402;50.004;8.246;2023-03-14T14:17:47;1.23;;;1.13;;
10701;SDS011;5402;50.004;8.246;2023-03-14T14:20:19;1.00;;;1.00;;
10701;SDS011;5402;50.004;8.246;2023-03-14T14:22:49;1.30;;;1.20;;
10701;SDS011;5402;50.004;8.246;2023-03-14T14:25:17;0.97;;;0.93;;
10701;SDS011;5402;50.004;8.246;2023-03-14T14:27:46;1.47;;;1.00;;
10701;SDS011;5402;50.004;8.246;2023-03-14T14:30:28;1.00;;;1.00;;
10701;SDS011;5402;50.004;8.246;2023-03-14T14:33:16;1.30;;;1.20;;
10701;SDS011;5402;50.004;8.246;2023-03-14T14:35:49;1.73;;;1.10;;
10701;SDS011;5402;50.004;8.246;2023-03-14T14:38:19;1.47;;;1.20;;
10701;SDS011;5402;50.004;8.246;2023-03-14T14:40:47;1.10;;;1.10;;
10701;SDS011;5402;50.004;8.246;2023-03-14T14:43:17;2.30;;;1.30;;
10701;SDS011;5402;50.004;8.246;2023-03-14T14:45:47;1.20;;;1.10;;
10701;SDS011;5402;50.004;8.246;2023-03-14T14:48:15;1.27;;;1.17;;
10701;SDS011;5402;50.004;8.246;2023-03-14T14:50:49;1.10;;;1.10;;
10701;SDS011;5402;50.004;8.246;2023-03-14T14:53:23;1.20;;;1.10;;
10701;SDS011;5402;50.004;8.246;2023-03-14T14:55:53;1.30;;;1.20;;
10701;SDS011;5402;50.004;8.246;2023-03-14T14:58:23;1.03;;;1.00;;
10701;SDS011;5402;50.004;8.246;2023-03-14T15:00:52;2.00;;;0.90;;
10701;SDS011;5402;50.004;8.246;2023-03-14T15:03:20;1.20;;;1.10;;
10701;SDS011;5402;50.004;8.246;2023-03-14T15:05:47;1.30;;;1.20;;
10701;SDS011;5402;50.004;8.246;2023-03-14T15:08:14;1.20;;;0.90;;
10701;SDS011;5402;50.004;8.246;2023-03-14T15:10:42;2.07;;;0.90;;
10701;SDS011;5402;50.004;8.246;2023-03-14T15:13:08;1.10;;;0.83;;
10701;SDS011;5402;50.004;8.246;2023-03-14T15:15:35;3.97;;;1.17;;
10701;SDS011;5402;50.004;8.246;2023-03-14T15:18:04;1.77;;;0.60;;